Viscount, Canada
Current Conditions -  °F | °C
As of 7:00 AM on Saturday 25 Oct 2014 (Local Time) from CYXE Reporting Station
Clear Clear  
Wind Chill: 13°   Ceiling: Unl
Heat Index: 23°   Visibility: 15mi
Dew Point: 21°   Wind: 9mph
Humidity: 93%   Direction: 240°WSW
Pressure: 30.04"   Gusts: NA
Location:  51.95°N, 105.63°W
Report Text: CYXE 251300Z 24008KT 15SM SKC M05/M06 A3004 RMK SLP200
Loading
Personal Weather Stations






























Interactive Weather Map
Tropical Storm Tracking
New forecast layout! Learn more

10-Day Weather Forecast

Advertisements
Track Severe Weather on mobile